Houston, Ohio
Current Conditions -  °F | °C
As of 5:11 AM on Monday 26 Jan 2015 (Local Time) from KAXV Reporting Station
Overcast Overcast  
Wind Chill:   Ceiling: 4400
Heat Index: 18°   Visibility: 10mi
Dew Point: 14°   Wind: 10mph
Humidity: 86%   Direction: 360°N
Pressure: 29.86"   Gusts: NA
Location:  40.25°N, 84.34°W
Report Text: KAXV 261011Z AUTO 36009KT 10SM BKN044 OVC060 M08/M10 A2986 RMK AO2
Loading
Personal Weather Stations






























Interactive Weather Map New forecast layout! Learn more

10-Day Weather Forecast

Advertisements
Track Severe Weather on mobile